EmailTwitter


Observations de surface / Québec / CYHU (71371)

Régions: Québec | Canada | États-Unis | Europe | France | UK | Elsewhere
Station
Affichage
Infos & localisation pour CYHU (71371) | Aide pour décoder les METARs

Observations prises le 2017-05-26 à 16H00 UTC à MONTREAL/ST HUBE, QB (CYHU)

Etat du ciel: couvert.

Obstacle(s) à la visibilité: faible pluie.

Température: 12.0 Celsius

Point de rosée: 11.0 Celsius

Humidité relative: 94%

Facteur vent: 9.

Facteur vent (rafales): 8.

Vents: Nord-est à 31 km/h ou 17 noeuds.

Rafale du vent: 46 km/h ou 25 noeuds.

Pression au niveau moyen de la mer: 100.35 kilopascals.

Calage altimétrique: 100.34 kilopascals ou 29.63 pouces de mercure.

Visibilité horizontale: 9.00 milles terrestres ou 14.40 kilomètres.

Hauteur du plafond: 640 mètres ( 2100 pieds ).

Observation METAR:

CYHU 261600Z AUTO 04017G25KT 9SM -RA SCT015 OVC021 12/11 A2963 RMK SLP035

DENSITY ALT 100FT=